Time;durP1;ratioP1;P1;durP2;ratioP2;P2;SDS_P1;SDS_P2;PMS_P1;PMS_P2;Temp;Humidity;BMP_temperature;BMP_pressure;BME280_temperature;BME280_humidity;BME280_pressure;Samples;Min_cycle;Max_cycle;Signal;HPM_P1;HPM_P2
2022/06/24 00:02:20;;;;;;;3.10;1.17;;;17.80;99.90;;;17.73;100.00;96754.97;4981329;28;20039;-36
2022/06/24 00:04:55;;;;;;;2.40;0.90;;;17.80;99.90;;;17.76;100.00;96760.06;4981369;28;20166;-36
2022/06/24 00:07:21;;;;;;;2.08;0.80;;;17.80;99.90;;;17.78;100.00;96751.94;4982114;28;20029;-37
2022/06/24 00:09:48;;;;;;;8.00;1.23;;;17.90;99.90;;;17.79;100.00;96762.50;4983022;28;20039;-36
2022/06/24 00:12:21;;;;;;;1.58;0.90;;;17.90;99.90;;;17.81;100.00;96759.72;4975720;28;20220;-36
2022/06/24 00:14:59;;;;;;;2.88;0.93;;;17.90;99.90;;;17.80;100.00;96755.34;4976618;28;20077;-36
2022/06/24 00:17:30;;;;;;;2.80;1.05;;;17.90;99.90;;;17.78;100.00;96755.47;4980672;28;20057;-36
2022/06/24 00:20:05;;;;;;;2.28;0.90;;;17.90;99.90;;;17.80;100.00;96764.22;4987915;28;20030;-36
2022/06/24 00:22:41;;;;;;;2.05;0.75;;;17.90;99.90;;;17.81;100.00;96749.06;4983303;28;20060;-36
2022/06/24 00:25:13;;;;;;;2.40;1.13;;;17.90;99.90;;;17.83;100.00;96749.78;4986027;28;20522;-36
2022/06/24 00:27:40;;;;;;;2.42;1.30;;;17.90;99.90;;;17.77;100.00;96729.78;4983577;28;20049;-36
2022/06/24 00:30:15;;;;;;;4.05;1.23;;;18.00;99.90;;;17.90;100.00;96741.22;4984961;28;20479;-36
2022/06/24 00:32:43;;;;;;;2.85;1.20;;;18.00;99.90;;;17.92;100.00;96746.44;4986018;28;20046;-36
2022/06/24 00:35:12;;;;;;;2.03;1.02;;;18.00;99.90;;;17.92;100.00;96738.44;4988992;28;20038;-36
2022/06/24 00:37:40;;;;;;;2.15;1.20;;;18.00;99.90;;;17.91;100.00;96736.75;4984725;28;20045;-36
2022/06/24 00:40:09;;;;;;;4.57;1.42;;;18.00;99.90;;;17.91;100.00;96736.75;4987235;28;20707;-36
2022/06/24 00:42:38;;;;;;;1.67;1.30;;;18.00;99.90;;;17.89;100.00;96739.53;4986359;28;20253;-36
2022/06/24 00:45:34;;;;;;;1.95;1.25;;;18.00;99.90;;;17.90;100.00;96732.38;4992457;28;20504;-36
2022/06/24 00:48:06;;;;;;;2.25;1.10;;;18.00;99.90;;;17.91;100.00;96718.09;4989934;28;20386;-36
2022/06/24 00:50:32;;;;;;;5.55;1.63;;;18.00;99.90;;;17.92;100.00;96706.44;4989491;28;20091;-36
2022/06/24 00:53:01;;;;;;;4.38;1.27;;;18.00;99.90;;;17.85;100.00;96710.50;4978169;28;20058;-37
2022/06/24 00:55:34;;;;;;;2.42;1.30;;;17.90;99.90;;;17.83;100.00;96712.44;4964068;28;20514;-36
2022/06/24 00:58:01;;;;;;;4.95;1.70;;;17.90;99.90;;;17.78;100.00;96710.13;4968654;28;20084;-36
2022/06/24 01:00:30;;;;;;;7.28;1.33;;;17.90;99.90;;;17.75;100.00;96713.03;4983800;28;20080;-36
2022/06/24 01:03:03;;;;;;;2.28;1.30;;;17.90;99.90;;;17.77;100.00;96726.28;4986807;28;20038;-36
2022/06/24 01:05:31;;;;;;;3.13;1.40;;;17.90;99.90;;;17.75;100.00;96718.38;4977849;28;20968;-36
2022/06/24 01:07:59;;;;;;;3.28;1.30;;;17.90;99.90;;;17.72;100.00;96702.59;4981568;28;20037;-36
2022/06/24 01:10:26;;;;;;;3.13;1.52;;;17.80;99.90;;;17.73;100.00;96704.31;4983725;28;20084;-36
2022/06/24 01:12:52;;;;;;;3.53;1.30;;;17.80;99.90;;;17.71;100.00;96688.44;4986693;28;20096;-36
2022/06/24 01:15:18;;;;;;;3.58;1.38;;;17.80;99.90;;;17.66;100.00;96685.25;4986147;28;20058;-36
2022/06/24 01:17:43;;;;;;;6.25;1.95;;;17.80;99.90;;;17.66;100.00;96687.09;4989811;28;20172;-36
2022/06/24 01:20:11;;;;;;;3.92;1.40;;;17.80;99.90;;;17.64;100.00;96689.88;4986453;28;20034;-36
2022/06/24 01:22:39;;;;;;;2.80;1.17;;;17.80;99.90;;;17.61;100.00;96682.09;4983950;28;20394;-36
2022/06/24 01:25:06;;;;;;;6.75;1.48;;;17.70;99.90;;;17.62;100.00;96673.16;4985764;28;20038;-36
2022/06/24 01:27:32;;;;;;;4.72;1.80;;;17.70;99.90;;;17.52;100.00;96672.16;4982998;28;20113;-36
2022/06/24 01:29:58;;;;;;;7.10;2.00;;;17.70;99.90;;;17.49;100.00;96673.22;4977228;28;20049;-36
2022/06/24 01:32:23;;;;;;;8.18;2.05;;;17.60;99.90;;;17.44;100.00;96669.19;4977687;28;20117;-36
2022/06/24 01:34:49;;;;;;;3.70;1.50;;;17.60;99.90;;;17.42;100.00;96664.00;4975454;28;20036;-37
2022/06/24 01:37:15;;;;;;;5.50;1.90;;;17.60;99.90;;;17.40;100.00;96665.09;4982847;28;20060;-36
2022/06/24 01:39:42;;;;;;;4.95;1.83;;;17.50;99.90;;;17.39;100.00;96676.69;4976698;28;20529;-36
2022/06/24 01:42:07;;;;;;;5.40;1.70;;;17.50;99.90;;;17.37;100.00;96682.13;4977847;28;20083;-36
2022/06/24 01:44:34;;;;;;;6.57;2.20;;;17.50;99.90;;;17.33;100.00;96691.34;4977985;28;20569;-36
2022/06/24 01:47:00;;;;;;;2.47;1.27;;;17.50;99.90;;;17.29;100.00;96687.22;4983137;28;20648;-36
2022/06/24 01:49:26;;;;;;;8.75;1.95;;;17.50;99.90;;;17.31;100.00;96674.63;4980771;28;20545;-36
2022/06/24 01:51:55;;;;;;;5.03;1.63;;;17.40;99.90;;;17.24;100.00;96681.38;4978890;28;20040;-36
2022/06/24 01:54:20;;;;;;;4.35;2.10;;;17.40;99.90;;;17.20;100.00;96677.25;4964975;28;20065;-36
2022/06/24 01:56:46;;;;;;;3.60;1.95;;;17.40;99.90;;;17.18;100.00;96682.69;4977812;28;20026;-36
2022/06/24 01:59:14;;;;;;;5.50;2.00;;;17.30;99.90;;;17.16;100.00;96684.63;4979172;28;20042;-36
2022/06/24 02:01:40;;;;;;;5.30;1.92;;;17.30;99.90;;;17.14;100.00;96684.75;4981665;28;20034;-36
2022/06/24 02:04:07;;;;;;;7.60;1.85;;;17.30;99.90;;;17.13;100.00;96682.19;4977956;28;20058;-36
2022/06/24 02:06:33;;;;;;;6.03;2.00;;;17.30;99.90;;;17.10;100.00;96672.63;4963197;28;20048;-36
2022/06/24 02:08:59;;;;;;;2.63;1.73;;;17.30;99.90;;;17.11;100.00;96676.13;4983056;28;20035;-36
2022/06/24 02:14:10;;;;;;;4.45;1.98;;;17.30;99.90;;;17.14;100.00;96668.75;4980726;28;20037;-36
2022/06/24 02:16:37;;;;;;;7.57;2.15;;;17.30;99.90;;;17.13;100.00;96658.22;4983704;28;20049;-36
2022/06/24 02:19:03;;;;;;;6.03;1.98;;;17.30;99.90;;;17.10;100.00;96661.09;4981243;28;20092;-36
2022/06/24 02:21:29;;;;;;;4.60;1.70;;;17.20;99.90;;;17.09;100.00;96664.75;4981575;28;20467;-36
2022/06/24 02:23:55;;;;;;;5.45;2.28;;;17.20;99.90;;;17.03;100.00;96665.19;4984531;28;20398;-36
2022/06/24 02:26:21;;;;;;;2.88;1.65;;;17.20;99.90;;;16.94;100.00;96654.28;4984968;28;20040;-36
2022/06/24 02:28:47;;;;;;;2.47;1.55;;;17.10;99.90;;;16.91;100.00;96657.16;4982924;28;20029;-36
2022/06/24 02:31:13;;;;;;;5.13;1.85;;;17.10;99.90;;;16.84;100.00;96652.41;4984087;28;20080;-36
2022/06/24 02:33:39;;;;;;;2.63;1.70;;;17.00;99.90;;;16.79;100.00;96660.69;4984188;28;20091;-36
2022/06/24 02:36:06;;;;;;;4.35;1.95;;;16.90;99.90;;;16.73;100.00;96653.16;4979591;28;20494;-37
2022/06/24 02:38:33;;;;;;;4.03;1.90;;;16.90;99.90;;;16.66;100.00;96652.75;4984080;28;20034;-38
2022/06/24 02:41:00;;;;;;;3.97;1.88;;;16.80;99.90;;;16.59;100.00;96654.16;4980183;28;21557;-37
2022/06/24 02:43:34;;;;;;;5.80;2.67;;;16.80;99.90;;;16.50;100.00;96654.84;4984038;28;20038;-37
2022/06/24 02:46:03;;;;;;;3.90;1.65;;;16.70;99.90;;;16.47;100.00;96655.91;4983110;28;20070;-37
2022/06/24 02:48:31;;;;;;;4.75;1.77;;;16.60;99.90;;;16.42;100.00;96656.25;4984566;28;20063;-37
2022/06/24 02:51:00;;;;;;;2.60;1.70;;;16.60;99.90;;;16.37;100.00;96661.06;4975110;28;20406;-37
2022/06/24 02:53:27;;;;;;;2.75;1.60;;;16.50;99.90;;;16.35;100.00;96659.47;4981485;28;20102;-37
2022/06/24 02:56:00;;;;;;;2.90;1.95;;;16.50;99.90;;;16.33;100.00;96661.38;4983421;28;20034;-37
2022/06/24 02:58:26;;;;;;;;;;;16.50;99.90;;;16.29;100.00;96658.06;4985403;28;20033;-37
2022/06/24 03:00:52;;;;;;;6.28;2.20;;;16.40;99.90;;;16.27;100.00;96654.69;4985183;28;20377;-37
2022/06/24 03:03:20;;;;;;;3.28;1.85;;;16.50;99.90;;;16.26;100.00;96650.34;4981430;28;20042;-37
2022/06/24 03:05:47;;;;;;;6.05;2.22;;;16.40;99.90;;;16.26;100.00;96655.66;4981030;28;20034;-37
2022/06/24 03:08:15;;;;;;;6.05;2.13;;;16.40;99.90;;;16.23;100.00;96654.06;4986435;28;20033;-37
2022/06/24 03:10:41;;;;;;;6.38;2.10;;;16.40;99.90;;;16.18;100.00;96648.19;4985463;28;20034;-37
2022/06/24 03:13:07;;;;;;;4.25;1.58;;;16.40;99.90;;;16.16;100.00;96655.44;4978802;28;20040;-37
2022/06/24 03:15:33;;;;;;;4.55;1.88;;;16.30;99.90;;;16.15;100.00;96652.91;5020965;22;20071;-44
2022/06/24 03:17:59;;;;;;;5.30;2.05;;;16.30;99.90;;;16.11;100.00;96649.59;5016717;28;20765;-43
2022/06/24 03:20:25;;;;;;;5.07;2.10;;;16.30;99.90;;;16.09;100.00;96651.53;5012785;28;20034;-43
2022/06/24 03:22:51;;;;;;;4.03;2.00;;;16.30;99.90;;;16.08;100.00;96651.63;5010774;28;20040;-45
2022/06/24 03:25:17;;;;;;;7.97;2.40;;;16.30;99.90;;;16.05;100.00;96644.72;5005465;28;20585;-43
2022/06/24 03:27:44;;;;;;;3.33;2.00;;;16.20;99.90;;;16.03;100.00;96649.31;5001073;28;20033;-43
2022/06/24 03:30:11;;;;;;;4.93;1.92;;;16.20;99.90;;;16.02;100.00;96639.63;4997489;28;20403;-44
2022/06/24 03:32:37;;;;;;;4.30;1.75;;;16.20;99.90;;;16.00;100.00;96641.53;4995525;28;20034;-41
2022/06/24 03:35:05;;;;;;;4.95;1.90;;;16.20;99.90;;;15.98;100.00;96633.66;4997069;28;20345;-40
2022/06/24 03:37:32;;;;;;;9.80;2.25;;;16.10;99.90;;;15.94;100.00;96637.50;5000996;28;20041;-41
2022/06/24 03:39:58;;;;;;;5.38;2.20;;;16.10;99.90;;;15.94;100.00;96642.00;4999637;28;20052;-41
2022/06/24 03:42:25;;;;;;;4.07;1.95;;;16.10;99.90;;;15.91;100.00;96642.19;5006458;28;20085;-41
2022/06/24 03:44:51;;;;;;;3.90;2.03;;;16.10;99.90;;;15.93;100.00;96640.28;5003052;28;20554;-43
2022/06/24 03:47:17;;;;;;;4.40;2.15;;;16.10;99.90;;;15.92;100.00;96642.09;4978908;28;20038;-41
2022/06/24 03:49:43;;;;;;;4.88;1.85;;;16.10;99.90;;;15.90;100.00;96635.16;4998552;28;20397;-40
2022/06/24 03:52:09;;;;;;;4.55;2.30;;;16.10;99.90;;;15.88;100.00;96631.78;4986588;28;20100;-42
2022/06/24 03:54:35;;;;;;;3.90;2.10;;;16.10;99.90;;;15.88;100.00;96634.44;5004792;28;20053;-41
2022/06/24 03:57:01;;;;;;;3.78;2.03;;;16.00;99.90;;;15.87;100.00;96625.63;5007688;28;20543;-41
2022/06/24 03:59:27;;;;;;;3.85;2.13;;;16.00;99.90;;;15.81;100.00;96629.56;5004175;28;20065;-42
2022/06/24 04:01:52;;;;;;;4.82;2.42;;;16.00;99.90;;;15.86;100.00;96631.88;4995160;28;20124;-41
2022/06/24 04:04:18;;;;;;;4.88;2.33;;;16.00;99.90;;;15.87;100.00;96628.28;4998785;28;20034;-41
2022/06/24 04:06:44;;;;;;;3.90;2.53;;;16.00;99.90;;;15.90;100.00;96640.50;4997538;28;20494;-42
2022/06/24 04:09:11;;;;;;;4.60;2.20;;;16.00;99.90;;;15.85;100.00;96619.56;5002284;28;20055;-41
2022/06/24 04:11:36;;;;;;;4.82;2.30;;;16.10;99.90;;;15.92;100.00;96639.44;4993336;28;20122;-41
2022/06/24 04:14:03;;;;;;;7.22;2.53;;;16.10;99.90;;;15.87;100.00;96620.28;5001459;28;20045;-41
2022/06/24 04:16:29;;;;;;;4.65;1.92;;;16.10;99.90;;;15.97;100.00;96629.34;4996516;28;20066;-41
2022/06/24 04:18:55;;;;;;;6.38;2.70;;;16.10;99.90;;;16.08;100.00;96625.03;4983153;28;20096;-41
2022/06/24 04:21:21;;;;;;;4.97;2.60;;;16.20;99.90;;;16.14;100.00;96629.94;5000191;28;20142;-41
2022/06/24 04:23:50;;;;;;;5.68;2.70;;;16.30;99.90;;;16.19;100.00;96628.63;4998213;28;20044;-41
2022/06/24 04:26:18;;;;;;;4.32;2.40;;;16.30;99.90;;;16.26;100.00;96633.50;4995975;28;20474;-42
2022/06/24 04:28:45;;;;;;;8.02;2.45;;;16.40;99.90;;;16.29;100.00;96634.13;4998297;28;20034;-41
2022/06/24 04:31:12;;;;;;;7.95;3.08;;;16.50;99.90;;;16.37;100.00;96638.91;4981933;28;20136;-42
2022/06/24 04:33:38;;;;;;;7.28;3.28;;;16.50;99.90;;;16.46;100.00;96632.09;4996730;28;20042;-40
2022/06/24 04:36:11;;;;;;;5.60;2.63;;;16.60;99.90;;;16.53;100.00;96631.53;4994510;28;20034;-41
2022/06/24 04:38:37;;;;;;;7.13;2.85;;;16.70;99.90;;;16.57;100.00;96630.31;5007266;28;20038;-41
2022/06/24 04:41:11;;;;;;;7.15;2.55;;;16.80;99.90;;;16.68;100.00;96628.69;5003323;28;20048;-41
2022/06/24 04:43:37;;;;;;;9.63;2.90;;;16.80;99.90;;;16.76;100.00;96628.94;4996714;28;20044;-40
2022/06/24 04:46:03;;;;;;;5.80;2.45;;;16.90;99.90;;;16.80;100.00;96617.97;4985751;28;20037;-43
2022/06/24 04:48:28;;;;;;;6.65;3.10;;;17.00;99.90;;;16.95;100.00;96626.66;4984659;28;20049;-41
2022/06/24 04:50:54;;;;;;;6.50;2.70;;;17.10;99.90;;;17.17;100.00;96633.03;4978978;28;20030;-40
2022/06/24 04:53:19;;;;;;;7.00;2.67;;;17.20;99.90;;;17.32;100.00;96625.69;4989988;28;20034;-42
2022/06/24 04:55:45;;;;;;;4.70;2.15;;;17.40;99.90;;;17.52;100.00;96621.50;4991697;28;20449;-41
2022/06/24 04:58:11;;;;;;;5.20;2.22;;;17.60;99.90;;;17.62;100.00;96614.50;4992902;28;20050;-41
2022/06/24 05:00:37;;;;;;;7.65;2.30;;;17.70;99.90;;;17.83;100.00;96622.59;4994034;28;20120;-41
2022/06/24 05:03:03;;;;;;;3.28;1.90;;;17.80;99.90;;;18.20;100.00;96621.56;4971402;28;20038;-41
2022/06/24 05:05:28;;;;;;;7.57;2.25;;;18.00;99.90;;;18.35;100.00;96606.97;4979919;28;20038;-43
2022/06/24 05:07:54;;;;;;;5.38;2.13;;;18.30;99.90;;;18.64;100.00;96622.44;4982999;28;20076;-41
2022/06/24 05:10:20;;;;;;;4.85;1.95;;;18.40;99.90;;;19.04;100.00;96622.69;4985952;28;20042;-41
2022/06/24 05:12:46;;;;;;;4.78;2.05;;;18.60;99.90;;;19.52;100.00;96625.84;4991182;28;20081;-42
2022/06/24 05:15:11;;;;;;;3.97;1.85;;;19.00;99.90;;;19.89;100.00;96623.53;4993305;28;20034;-42
2022/06/24 05:17:37;;;;;;;4.47;2.10;;;19.20;99.90;;;20.17;100.00;96626.47;4990471;28;20037;-41
2022/06/24 05:20:03;;;;;;;6.10;2.15;;;19.50;99.90;;;20.36;100.00;96631.03;4989588;28;20092;-42
2022/06/24 05:22:29;;;;;;;8.57;2.17;;;19.80;99.90;;;20.86;100.00;96630.19;4993040;28;20260;-42
2022/06/24 05:24:54;;;;;;;4.22;1.40;;;20.10;99.90;;;21.64;100.00;96624.81;4990061;28;20335;-41
2022/06/24 05:27:20;;;;;;;6.30;1.92;;;20.60;99.90;;;22.74;98.46;96624.09;4985865;28;20041;-39
2022/06/24 05:29:46;;;;;;;4.40;1.70;;;21.20;99.90;;;23.89;89.48;96610.81;4989568;28;20038;-39
2022/06/24 05:32:12;;;;;;;4.43;1.55;;;21.90;99.90;;;24.70;86.95;96618.44;4990364;28;20080;-39
2022/06/24 05:34:37;;;;;;;6.45;1.70;;;22.70;99.90;;;24.92;84.97;96618.81;4980970;28;20487;-42
2022/06/24 05:37:03;;;;;;;6.65;1.70;;;23.10;99.90;;;24.69;83.44;96615.91;4989483;28;20621;-42
2022/06/24 05:39:29;;;;;;;4.50;1.75;;;23.30;99.90;;;24.22;84.97;96619.06;4984431;28;20095;-42
2022/06/24 05:41:55;;;;;;;6.85;2.00;;;23.20;99.90;;;23.73;86.90;96620.44;4994711;28;20449;-42
2022/06/24 05:44:21;;;;;;;3.47;1.50;;;23.00;99.90;;;23.33;88.95;96611.06;4999115;28;20053;-42
2022/06/24 05:46:46;;;;;;;5.15;1.85;;;22.80;99.90;;;23.01;91.65;96614.28;4994517;28;20461;-42
2022/06/24 05:49:12;;;;;;;6.50;1.83;;;22.60;99.90;;;22.67;92.43;96605.03;5002074;28;20030;-41
2022/06/24 05:51:38;;;;;;;6.18;1.77;;;22.40;99.90;;;22.42;92.93;96601.22;4999208;28;20026;-42
2022/06/24 05:56:48;;;;;;;3.45;1.63;;;22.10;99.90;;;22.13;96.36;96601.34;4998670;28;20135;-43
2022/06/24 05:59:14;;;;;;;7.28;2.10;;;22.00;99.90;;;21.98;94.49;96603.66;5002523;28;20328;-42
2022/06/24 06:01:41;;;;;;;4.00;1.77;;;21.90;99.90;;;21.95;93.07;96608.47;4999360;28;20132;-42
2022/06/24 06:04:07;;;;;;;7.20;1.83;;;21.80;99.90;;;21.79;89.68;96609.97;4980239;28;20505;-43
2022/06/24 06:06:34;;;;;;;10.10;2.10;;;21.80;99.90;;;21.76;92.26;96610.25;5003521;28;20037;-43
2022/06/24 06:09:00;;;;;;;4.38;1.92;;;21.70;99.90;;;21.71;93.00;96597.28;4993330;28;20030;-41
2022/06/24 06:11:26;;;;;;;4.88;1.92;;;21.70;99.90;;;21.74;93.67;96604.19;5007292;28;20053;-42
2022/06/24 06:13:54;;;;;;;5.47;2.20;;;21.70;99.90;;;21.67;92.09;96609.25;5004269;28;20568;-43
2022/06/24 06:16:22;;;;;;;8.85;2.20;;;21.70;99.90;;;21.65;93.74;96613.94;4998725;28;20034;-42
2022/06/24 06:18:48;;;;;;;5.93;2.22;;;21.60;99.90;;;21.67;92.55;96613.81;5000218;28;20848;-43
2022/06/24 06:21:15;;;;;;;5.43;1.77;;;21.60;99.90;;;21.59;95.49;96609.16;5005548;28;20098;-42
2022/06/24 06:23:41;;;;;;;4.90;2.05;;;21.60;99.90;;;21.44;93.90;96616.75;5004819;28;20234;-45
2022/06/24 06:26:08;;;;;;;4.63;1.92;;;21.50;99.90;;;21.47;93.56;96613.00;4995139;28;20026;-44
2022/06/24 06:28:34;;;;;;;11.63;2.28;;;21.40;99.90;;;21.51;93.01;96620.59;5002969;28;20201;-42
2022/06/24 06:31:00;;;;;;;7.57;2.08;;;21.50;99.90;;;21.44;96.02;96621.28;5004253;28;20030;-40
2022/06/24 06:33:26;;;;;;;7.63;1.75;;;21.40;99.90;;;21.30;92.61;96627.94;5002807;28;20048;-40
2022/06/24 06:35:53;;;;;;;7.88;2.03;;;21.30;99.90;;;21.34;93.73;96629.34;5005793;28;20034;-40
2022/06/24 06:38:19;;;;;;;4.93;1.80;;;21.30;99.90;;;21.43;95.24;96630.34;4990795;28;20518;-40
2022/06/24 06:40:44;;;;;;;4.75;2.20;;;21.40;99.90;;;21.54;97.02;96628.38;4999151;28;20153;-40
2022/06/24 06:43:10;;;;;;;9.23;2.33;;;21.60;99.90;;;21.64;92.66;96630.19;5000809;28;20103;-40
2022/06/24 06:45:39;;;;;;;6.03;2.13;;;21.60;99.90;;;21.62;95.96;96630.31;4998461;28;20169;-40
2022/06/24 06:48:05;;;;;;;5.78;2.22;;;21.70;99.90;;;21.66;92.32;96626.38;5004053;28;20025;-40
2022/06/24 06:50:32;;;;;;;8.07;1.90;;;21.80;99.90;;;21.78;95.29;96629.72;4997678;28;20289;-40
2022/06/24 06:52:58;;;;;;;8.23;2.38;;;21.80;99.90;;;21.81;94.49;96626.75;5003056;28;20026;-40
2022/06/24 06:55:23;;;;;;;4.57;1.90;;;21.90;99.90;;;21.92;90.60;96623.03;5002510;28;20069;-40
2022/06/24 06:57:50;;;;;;;5.28;2.00;;;21.90;99.90;;;21.95;87.25;96622.75;5003691;28;20292;-41
2022/06/24 07:00:17;;;;;;;8.43;2.30;;;22.00;99.90;;;22.03;87.65;96624.69;5000848;28;20030;-40
2022/06/24 07:02:43;;;;;;;6.63;1.83;;;22.10;99.90;;;22.01;84.83;96607.91;4998588;28;20030;-40
2022/06/24 07:05:08;;;;;;;6.20;2.05;;;22.20;99.90;;;22.12;85.84;96635.38;5026556;22;20464;-40
2022/06/24 07:07:34;;;;;;;3.60;1.85;;;22.30;99.90;;;22.20;84.88;96620.38;5047359;28;20036;-41
2022/06/24 07:10:00;;;;;;;5.10;1.98;;;22.30;99.90;;;22.22;85.32;96623.78;5042485;28;20086;-40
2022/06/24 07:12:27;;;;;;;9.82;2.35;;;22.40;99.90;;;22.34;84.64;96630.66;5041530;28;20033;-40
2022/06/24 07:14:53;;;;;;;5.18;1.70;;;22.50;99.90;;;22.32;83.49;96637.19;5040372;28;20084;-40
2022/06/24 07:17:19;;;;;;;8.25;2.15;;;22.50;99.90;;;22.42;82.66;96628.09;5021632;28;20487;-40
2022/06/24 07:19:46;;;;;;;5.00;1.80;;;22.60;99.90;;;22.49;81.93;96639.09;5025556;28;20033;-40
2022/06/24 07:22:13;;;;;;;8.02;1.85;;;22.60;99.90;;;22.47;81.98;96635.72;5025476;28;20028;-40
2022/06/24 07:24:39;;;;;;;4.13;1.88;;;22.60;99.90;;;22.53;81.88;96635.09;5024772;28;20111;-40
2022/06/24 07:27:08;;;;;;;4.78;1.80;;;22.70;99.90;;;22.57;82.40;96638.34;5023384;28;20033;-41
2022/06/24 07:29:35;;;;;;;4.82;2.03;;;22.70;99.90;;;22.56;80.79;96642.88;5022003;28;20065;-40
2022/06/24 07:32:02;;;;;;;5.72;1.95;;;22.80;99.90;;;22.56;82.46;96642.88;5010733;28;20040;-40
2022/06/24 07:34:30;;;;;;;7.47;2.47;;;22.80;99.90;;;22.71;82.29;96635.13;5026577;28;20075;-40
2022/06/24 07:36:57;;;;;;;5.32;2.15;;;22.90;99.90;;;22.73;80.27;96637.69;5026417;28;20033;-40
2022/06/24 07:39:23;;;;;;;4.38;1.98;;;22.90;99.90;;;22.57;81.94;96643.72;5019351;28;20644;-40
2022/06/24 07:41:50;;;;;;;5.00;1.98;;;22.70;99.90;;;22.36;82.56;96638.59;5023210;28;20048;-40
2022/06/24 07:44:16;;;;;;;4.07;1.90;;;22.60;99.90;;;22.24;80.43;96638.75;5021071;28;20167;-40
2022/06/24 07:46:42;;;;;;;6.85;2.33;;;22.40;99.90;;;22.15;81.40;96639.63;5025101;28;20033;-40
2022/06/24 07:49:07;;;;;;;7.53;2.08;;;22.30;99.90;;;22.19;80.27;96629.44;5025201;28;20033;-40
2022/06/24 07:51:33;;;;;;;2.90;1.75;;;22.30;99.90;;;22.41;80.41;96622.88;5023442;28;20041;-40
2022/06/24 07:53:59;;;;;;;4.05;1.80;;;22.40;99.90;;;22.39;79.45;96630.22;5023930;28;20044;-40
2022/06/24 07:59:09;;;;;;;7.22;2.22;;;22.50;99.90;;;22.59;79.84;96621.06;5019605;28;20033;-40
2022/06/24 08:01:35;;;;;;;5.15;2.00;;;22.60;99.90;;;22.73;79.30;96624.25;5025162;28;20029;-40
2022/06/24 08:04:07;;;;;;;5.18;1.60;;;22.70;99.90;;;22.67;78.30;96621.16;5026306;28;20021;-40
2022/06/24 08:06:42;;;;;;;4.10;1.67;;;22.70;99.90;;;22.76;76.57;96619.41;5024793;28;20041;-40
2022/06/24 08:09:08;;;;;;;3.80;1.70;;;22.70;99.90;;;22.61;74.46;96608.34;5019637;28;20025;-40
2022/06/24 08:11:34;;;;;;;4.07;1.77;;;22.80;99.90;;;22.65;76.59;96598.97;5023658;28;20033;-41
2022/06/24 08:14:00;;;;;;;3.17;1.95;;;22.80;99.90;;;22.64;71.10;96609.88;5025321;28;20120;-40
2022/06/24 08:16:26;;;;;;;4.28;1.80;;;22.80;99.90;;;22.68;72.35;96604.06;5022674;28;20030;-41
2022/06/24 08:18:52;;;;;;;3.83;1.67;;;22.80;99.90;;;22.68;73.15;96597.81;5022504;28;20086;-41
2022/06/24 08:21:18;;;;;;;3.08;1.58;;;22.80;99.90;;;22.85;73.40;96591.59;5024740;28;20369;-40
2022/06/24 08:23:44;;;;;;;4.30;1.75;;;22.90;99.90;;;22.97;69.40;96602.13;5022182;28;20033;-41
2022/06/24 08:26:10;;;;;;;3.88;1.50;;;23.00;99.90;;;23.00;69.51;96597.28;5022875;28;20494;-41
2022/06/24 08:28:35;;;;;;;3.05;1.50;;;23.10;99.90;;;22.97;67.75;96596.75;5023741;28;20037;-40
2022/06/24 08:31:01;;;;;;;3.20;1.45;;;23.10;99.90;;;23.14;68.70;96587.03;5023177;28;20404;-40
2022/06/24 08:33:28;;;;;;;2.92;1.30;;;23.20;99.90;;;23.31;67.86;96572.72;5022335;28;20481;-41
2022/06/24 08:35:54;;;;;;;2.95;1.73;;;23.40;99.90;;;23.79;64.91;96582.09;5023080;28;20045;-41
2022/06/24 08:38:20;;;;;;;7.70;1.80;;;23.80;99.90;;;23.95;63.55;96584.09;5020008;28;20134;-41
2022/06/24 08:40:50;;;;;;;3.35;1.65;;;24.20;99.90;;;24.12;60.70;96585.03;5005690;28;20110;-41
2022/06/24 08:43:16;;;;;;;3.35;1.48;;;24.40;99.90;;;24.57;59.31;96588.44;5005626;28;20037;-41
2022/06/24 08:45:42;;;;;;;4.95;1.55;;;24.70;99.90;;;24.54;58.52;96576.09;5009465;28;20520;-41
2022/06/24 08:48:10;;;;;;;5.25;1.90;;;24.80;99.90;;;24.51;58.23;96576.38;5010867;28;20052;-41
2022/06/24 08:50:36;;;;;;;5.20;2.00;;;24.70;99.90;;;24.53;60.54;96578.97;5021668;28;20030;-40
2022/06/24 08:53:07;;;;;;;5.32;1.92;;;24.70;99.90;;;24.55;61.30;96577.81;5021799;28;20113;-40
2022/06/24 08:55:39;;;;;;;3.97;1.77;;;24.70;99.90;;;24.56;58.52;96587.56;5020719;28;20374;-40
2022/06/24 08:58:07;;;;;;;4.93;1.60;;;24.70;99.90;;;24.46;58.88;96588.69;5026026;28;20037;-40
2022/06/24 09:00:33;;;;;;;4.82;1.65;;;24.50;99.90;;;24.44;59.50;96579.91;5023164;28;20442;-40
2022/06/24 09:02:59;;;;;;;5.85;2.80;;;24.50;99.90;;;24.39;60.35;96569.63;5021641;28;20033;-40
2022/06/24 09:05:27;;;;;;;3.83;2.25;;;24.50;99.90;;;24.52;61.52;96580.78;5017662;28;20030;-40
2022/06/24 09:08:11;;;;;;;4.05;2.38;;;24.50;99.90;;;24.57;59.10;96569.56;5021101;28;20034;-40
2022/06/24 09:11:06;;;;;;;2.10;1.58;;;24.80;99.90;;;24.92;61.60;96562.19;5019885;28;20195;-41
2022/06/24 09:13:44;;;;;;;2.08;1.50;;;25.00;99.90;;;25.56;60.13;96562.38;5018895;28;20290;-40
2022/06/24 09:16:12;;;;;;;4.93;1.67;;;25.60;99.90;;;25.94;57.63;96561.84;5047999;22;20048;-49
2022/06/24 09:18:38;;;;;;;5.03;1.70;;;26.20;99.90;;;25.77;52.13;96560.97;5044368;28;20100;-48
2022/06/24 09:21:04;;;;;;;2.28;1.50;;;26.30;97.30;;;26.05;53.63;96553.34;5043137;28;20108;-47
2022/06/24 09:23:30;;;;;;;4.22;1.60;;;26.30;98.30;;;26.25;57.45;96543.78;5033075;28;20119;-48
2022/06/24 09:26:03;;;;;;;4.07;1.98;;;26.50;99.80;;;26.32;60.43;96556.63;5030948;28;20198;-46
2022/06/24 09:28:32;;;;;;;5.65;1.80;;;26.40;99.90;;;25.99;62.65;96554.88;5024401;28;20037;-49
2022/06/24 09:31:09;;;;;;;8.13;1.80;;;26.20;99.90;;;25.63;66.50;96554.44;5020375;28;20060;-49
2022/06/24 09:33:44;;;;;;;4.85;2.00;;;25.80;99.90;;;25.21;67.29;96556.28;5020491;28;22369;-48
2022/06/24 09:36:12;;;;;;;7.88;2.15;;;25.50;99.90;;;25.09;65.70;96552.28;5023902;28;20029;-48
2022/06/24 09:39:04;;;;;;;6.13;2.25;;;25.30;99.90;;;24.94;62.90;96542.16;5020823;28;20087;-47
2022/06/24 09:41:41;;;;;;;6.00;2.10;;;25.20;99.90;;;24.95;66.31;96554.63;5027031;28;20325;-48
2022/06/24 09:44:09;;;;;;;6.00;1.70;;;25.10;99.90;;;24.81;66.14;96555.28;5025520;28;20030;-48
2022/06/24 09:46:35;;;;;;;3.53;1.60;;;24.90;99.90;;;24.65;67.46;96556.06;5026662;28;20026;-48
2022/06/24 09:49:07;;;;;;;2.55;1.55;;;24.70;99.90;;;24.62;68.07;96556.44;5032495;28;20049;-48
2022/06/24 09:51:33;;;;;;;2.20;1.45;;;24.60;99.90;;;24.68;66.02;96550.38;5025012;28;20033;-49
2022/06/24 09:53:59;;;;;;;5.20;1.90;;;24.70;99.90;;;24.79;66.52;96551.91;5022356;28;20206;-49
2022/06/24 09:56:26;;;;;;;2.80;1.60;;;24.80;99.90;;;24.67;67.03;96545.97;5024677;28;20068;-48
2022/06/24 10:01:42;;;;;;;5.35;2.05;;;24.70;99.90;;;24.55;62.34;96547.31;5028073;28;20095;-47
2022/06/24 10:04:20;;;;;;;3.22;1.70;;;24.80;99.90;;;24.62;67.08;96542.09;5027490;28;20032;-46
2022/06/24 10:06:49;;;;;;;3.80;1.80;;;24.80;99.90;;;24.87;65.24;96538.44;5026592;28;20029;-48
2022/06/24 10:09:26;;;;;;;4.70;2.05;;;25.00;99.90;;;25.13;71.79;96532.88;5026519;28;20033;-49
2022/06/24 10:11:54;;;;;;;2.88;1.50;;;25.30;99.90;;;25.65;67.30;96528.94;5028274;28;20033;-48
2022/06/24 10:14:20;;;;;;;5.05;1.55;;;25.80;99.90;;;25.81;52.98;96535.34;5028329;28;20052;-45
2022/06/24 10:16:48;;;;;;;4.47;1.45;;;26.20;97.50;;;26.16;52.85;96531.34;5021895;28;20033;-47
2022/06/24 10:19:17;;;;;;;3.00;1.38;;;26.30;97.20;;;25.91;51.92;96536.81;5014116;28;20087;-48
2022/06/24 10:21:42;;;;;;;6.80;1.70;;;26.30;96.10;;;26.11;54.24;96528.31;5008373;28;20048;-47
2022/06/24 10:24:16;;;;;;;3.90;1.77;;;26.30;97.70;;;25.95;55.99;96534.66;5009981;28;20037;-48
2022/06/24 10:26:47;;;;;;;4.93;1.60;;;26.20;97.90;;;25.83;57.85;96536.84;5027930;28;20037;-45
2022/06/24 10:29:13;;;;;;;2.58;1.80;;;25.90;98.80;;;25.48;62.63;96543.50;5017530;28;20084;-44